createdAt,value
2019-04-22T00:00:34.584Z,148.22
2019-04-22T00:03:03.058Z,145.02
2019-04-22T00:05:53.176Z,147.37
2019-04-22T00:08:16.859Z,144.57
2019-04-22T00:10:54.021Z,144.72
2019-04-22T00:13:27.614Z,145.35
2019-04-22T00:15:41.806Z,143.35
2019-04-22T00:18:22.276Z,144.32
2019-04-22T00:20:54.438Z,144.05
2019-04-22T00:23:12.842Z,144.75
2019-04-22T00:25:48.318Z,144.97
2019-04-22T00:28:14.626Z,145.57
2019-04-22T00:30:44.915Z,143.90
2019-04-22T00:33:24.931Z,144.28
2019-04-22T00:35:54.544Z,143.20
2019-04-22T00:38:23.445Z,143.90
2019-04-22T00:40:53.370Z,143.05
2019-04-22T00:43:24.329Z,143.25
2019-04-22T00:45:49.208Z,143.05
2019-04-22T00:51:01.627Z,143.68
2019-04-22T00:53:31.303Z,143.37
2019-04-22T00:56:05.549Z,144.40
2019-04-22T00:58:31.194Z,142.53
2019-04-22T01:01:06.269Z,144.68
2019-04-22T01:03:37.025Z,143.13
2019-04-22T01:06:03.488Z,143.45
2019-04-22T01:08:43.187Z,145.40
2019-04-22T01:11:03.242Z,143.80
2019-04-22T01:13:34.363Z,143.47
2019-04-22T01:16:09.334Z,143.00
2019-04-22T01:18:29.843Z,141.75
2019-04-22T01:23:28.200Z,142.98
2019-04-22T01:25:55.272Z,144.80
2019-04-22T01:28:23.816Z,144.65
2019-04-22T01:30:46.902Z,144.32
2019-04-22T01:33:16.315Z,143.00
2019-04-22T01:35:58.240Z,143.55
2019-04-22T01:38:23.627Z,142.30
2019-04-22T01:41:07.236Z,143.78
2019-04-22T01:43:42.126Z,142.10
2019-04-22T01:46:02.612Z,143.28
2019-04-22T01:48:36.608Z,141.22
2019-04-22T01:50:54.755Z,141.82
2019-04-22T01:53:36.439Z,144.02
2019-04-22T01:55:59.818Z,142.93
2019-04-22T01:58:24.878Z,142.03
2019-04-22T02:01:13.594Z,143.62
2019-04-22T02:03:25.722Z,142.98
2019-04-22T02:05:59.237Z,143.37
2019-04-22T02:08:31.446Z,144.60
2019-04-22T02:10:54.860Z,145.72
2019-04-22T02:13:23.819Z,143.40
2019-04-22T02:15:52.513Z,141.68
2019-04-22T02:18:23.000Z,143.28
2019-04-22T02:20:50.331Z,143.20
2019-04-22T02:28:42.542Z,143.52
2019-04-22T02:41:21.385Z,143.20
2019-04-22T02:43:43.979Z,144.40
2019-04-22T02:46:16.603Z,141.88
2019-04-22T02:48:45.946Z,142.43
2019-04-22T02:51:06.176Z,142.28
2019-04-22T02:53:59.327Z,143.13
2019-04-22T02:56:04.938Z,142.68
2019-04-22T02:58:41.170Z,142.22
2019-04-22T03:01:06.011Z,142.50
2019-04-22T03:03:45.850Z,141.10
2019-04-22T03:06:19.333Z,142.28
2019-04-22T03:08:23.962Z,142.62
2019-04-22T03:13:32.447Z,141.77
2019-04-22T03:16:01.142Z,142.32
2019-04-22T03:18:35.845Z,144.47
2019-04-22T03:21:00.115Z,141.80
2019-04-22T03:23:42.864Z,143.35
2019-04-22T03:28:30.985Z,143.05
2019-04-22T03:32:16.728Z,141.43
2019-04-22T03:42:00.584Z,141.15
2019-04-22T03:44:26.129Z,140.03
2019-04-22T03:46:53.362Z,141.50
2019-04-22T03:49:29.056Z,142.37
2019-04-22T03:51:56.732Z,141.12
2019-04-22T03:54:35.828Z,141.40
2019-04-22T03:57:18.376Z,141.53
2019-04-22T03:59:28.663Z,141.12
2019-04-22T04:04:15.462Z,141.40
2019-04-22T04:06:50.188Z,141.10
2019-04-22T04:09:16.872Z,139.52
2019-04-22T04:11:55.816Z,142.40
2019-04-22T04:14:27.028Z,143.47
2019-04-22T04:16:50.447Z,141.47
2019-04-22T04:19:13.828Z,143.65
2019-04-22T04:21:41.383Z,141.88
2019-04-22T04:24:29.125Z,139.95
2019-04-22T04:41:52.115Z,140.03
2019-04-22T04:44:15.182Z,140.30
2019-04-22T04:46:47.339Z,140.77
2019-04-22T04:54:23.423Z,143.30
2019-04-22T04:56:40.367Z,142.15
2019-04-22T04:59:17.301Z,144.30
2019-04-22T05:01:35.170Z,142.77
2019-04-22T05:16:54.661Z,142.90
2019-04-22T05:22:05.142Z,143.02
2019-04-22T05:24:36.680Z,143.07
2019-04-22T05:27:15.059Z,143.70
2019-04-22T05:29:54.196Z,142.10
2019-04-22T05:32:01.458Z,142.98
2019-04-22T05:34:35.078Z,143.30
2019-04-22T05:37:00.949Z,143.40
2019-04-22T05:39:31.075Z,144.22
2019-04-22T05:42:03.671Z,144.37
2019-04-22T05:44:29.559Z,145.65
2019-04-22T05:46:52.815Z,145.62
2019-04-22T05:51:55.444Z,145.60
2019-04-22T05:54:27.638Z,144.60
2019-04-22T05:56:47.186Z,144.00
2019-04-22T05:59:25.002Z,144.30
2019-04-22T06:02:00.735Z,145.02
2019-04-22T06:04:25.685Z,144.20
2019-04-22T06:06:51.788Z,144.05
2019-04-22T06:09:27.469Z,143.20
2019-04-22T06:11:47.670Z,144.07
2019-04-22T06:14:20.437Z,144.77
2019-04-22T06:16:59.143Z,144.62
2019-04-22T06:19:38.536Z,144.60
2019-04-22T06:22:16.951Z,144.80
2019-04-22T06:24:27.868Z,147.40
2019-04-22T06:27:02.325Z,146.68
2019-04-22T06:29:19.597Z,145.68
2019-04-22T06:32:10.222Z,148.15
2019-04-22T06:34:22.375Z,145.22
2019-04-22T06:36:53.882Z,146.87
2019-04-22T06:39:21.179Z,146.43
2019-04-22T06:41:47.660Z,148.15
2019-04-22T06:44:22.727Z,146.07
2019-04-22T06:46:47.699Z,147.50
2019-04-22T06:49:18.726Z,148.70
2019-04-22T06:51:46.807Z,148.80
2019-04-22T06:54:14.367Z,148.87
2019-04-22T06:56:42.737Z,149.20
2019-04-22T06:59:14.835Z,147.47
2019-04-22T07:01:45.829Z,148.93
2019-04-22T07:04:25.103Z,148.57
2019-04-22T07:06:43.738Z,147.87
2019-04-22T07:11:43.330Z,149.30
2019-04-22T07:14:09.384Z,149.82
2019-04-22T07:16:43.278Z,149.30
2019-04-22T07:19:13.867Z,149.90
2019-04-22T07:21:44.093Z,150.07
2019-04-22T07:24:28.217Z,150.22
2019-04-22T07:26:44.856Z,149.07
2019-04-22T07:29:12.119Z,149.25
2019-04-22T07:31:44.663Z,149.15
2019-04-22T07:42:10.448Z,148.82
2019-04-22T07:44:45.073Z,149.70
2019-04-22T07:52:10.026Z,149.95
2019-04-22T07:54:49.296Z,149.30
2019-04-22T07:59:50.077Z,149.82
2019-04-22T08:02:31.797Z,151.35
2019-04-22T08:05:07.317Z,152.00
2019-04-22T08:07:30.189Z,150.45
2019-04-22T08:12:28.153Z,150.78
2019-04-22T08:14:53.801Z,152.53
2019-04-22T08:19:57.413Z,150.90
2019-04-22T08:22:25.902Z,150.30
2019-04-22T08:27:22.472Z,150.62
2019-04-22T08:30:09.448Z,150.10
2019-04-22T08:32:27.976Z,151.05
2019-04-22T08:34:56.466Z,149.40
2019-04-22T08:39:55.063Z,149.95
2019-04-22T08:42:35.433Z,151.25
2019-04-22T08:47:31.114Z,151.55
2019-04-22T08:50:04.656Z,152.02
2019-04-22T08:52:20.780Z,152.53
2019-04-22T08:54:55.399Z,151.97
2019-04-22T08:57:26.020Z,154.85
2019-04-22T08:59:50.126Z,153.65
2019-04-22T09:02:25.966Z,153.35
2019-04-22T09:04:53.418Z,150.25
2019-04-22T09:07:30.259Z,153.62
2019-04-22T09:09:53.957Z,151.87
2019-04-22T09:14:55.345Z,152.70
2019-04-22T09:17:36.258Z,151.80
2019-04-22T09:20:11.323Z,151.80
2019-04-22T09:22:36.278Z,152.22
2019-04-22T09:25:06.724Z,150.42
2019-04-22T09:27:48.388Z,151.72
2019-04-22T09:30:21.787Z,150.55
2019-04-22T09:32:56.293Z,152.22
2019-04-22T09:35:15.873Z,152.27
2019-04-22T09:37:50.399Z,151.37
2019-04-22T09:40:18.392Z,151.50
2019-04-22T09:42:50.441Z,152.10
2019-04-22T09:45:43.643Z,152.20
2019-04-22T09:48:16.701Z,154.70
2019-04-22T09:50:43.142Z,154.15
2019-04-22T09:53:08.446Z,152.32
2019-04-22T09:55:37.472Z,152.65
2019-04-22T09:58:09.512Z,153.47
2019-04-22T10:00:43.004Z,155.40
2019-04-22T10:03:20.563Z,154.20
2019-04-22T10:05:48.073Z,153.70
2019-04-22T10:08:18.739Z,155.07
2019-04-22T10:10:49.001Z,155.97
2019-04-22T10:13:12.407Z,151.37
2019-04-22T10:15:33.694Z,152.85
2019-04-22T10:18:04.138Z,151.75
2019-04-22T10:20:32.772Z,152.05
2019-04-22T10:23:05.444Z,152.15
2019-04-22T10:25:36.015Z,153.18
2019-04-22T10:28:08.764Z,153.00
2019-04-22T10:30:41.751Z,153.65
2019-04-22T10:33:03.059Z,154.00
2019-04-22T10:35:15.509Z,154.38
2019-04-22T10:37:40.580Z,156.30
2019-04-22T10:40:13.662Z,155.57
2019-04-22T10:42:43.133Z,154.95
2019-04-22T10:45:12.389Z,154.97
2019-04-22T10:47:40.374Z,155.27
2019-04-22T10:50:10.100Z,152.93
2019-04-22T10:52:37.381Z,154.10
2019-04-22T10:55:05.856Z,156.75
2019-04-22T10:57:33.891Z,159.15
2019-04-22T11:00:01.017Z,154.78
2019-04-22T11:02:29.780Z,156.35
2019-04-22T11:04:59.351Z,157.97
2019-04-22T11:07:36.195Z,157.12
2019-04-22T11:10:09.819Z,156.30
2019-04-22T11:12:29.520Z,156.47
2019-04-22T11:14:55.787Z,155.37
2019-04-22T11:17:24.212Z,155.20
2019-04-22T11:19:53.338Z,156.57
2019-04-22T11:22:24.488Z,156.45
2019-04-22T11:24:50.800Z,155.25
2019-04-22T11:27:18.915Z,155.75
2019-04-22T11:29:47.952Z,156.22
2019-04-22T11:32:16.115Z,154.47
2019-04-22T11:34:43.239Z,153.72
2019-04-22T11:37:10.540Z,154.27
2019-04-22T11:39:38.679Z,152.62
2019-04-22T11:42:05.871Z,154.25
2019-04-22T11:44:35.309Z,152.35
2019-04-22T11:47:09.532Z,153.85
2019-04-22T11:49:36.719Z,155.32
2019-04-22T11:52:06.586Z,152.75
2019-04-22T11:54:35.138Z,156.00
2019-04-22T11:57:12.860Z,156.07
2019-04-22T11:59:40.751Z,155.15
2019-04-22T12:02:09.004Z,155.97
2019-04-22T12:04:38.182Z,156.63
2019-04-22T12:07:05.890Z,157.35
2019-04-22T12:09:33.755Z,156.12
2019-04-22T12:12:00.930Z,153.55
2019-04-22T12:14:28.010Z,154.35
2019-04-22T12:16:55.408Z,157.60
2019-04-22T12:19:27.392Z,157.32
2019-04-22T12:21:55.172Z,157.32
2019-04-22T12:24:23.281Z,155.30
2019-04-22T12:26:52.743Z,154.35
2019-04-22T12:29:22.744Z,154.40
2019-04-22T12:31:51.423Z,153.23
2019-04-22T12:34:19.649Z,156.60
2019-04-22T12:36:48.751Z,152.87
2019-04-22T12:39:17.710Z,156.55
2019-04-22T12:41:46.459Z,160.00
2019-04-22T12:44:14.995Z,153.38
2019-04-22T12:46:48.103Z,159.52
2019-04-22T12:49:18.178Z,154.90
2019-04-22T12:51:47.383Z,154.47
2019-04-22T12:54:17.188Z,154.38
2019-04-22T12:56:48.068Z,157.10
2019-04-22T12:59:17.579Z,156.28
2019-04-22T13:01:47.265Z,155.27
2019-04-22T13:04:19.502Z,155.20
2019-04-22T13:06:46.096Z,158.00
2019-04-22T13:09:14.550Z,155.20
2019-04-22T13:11:44.577Z,158.78
2019-04-22T13:14:12.781Z,157.40
2019-04-22T13:16:40.868Z,154.60
2019-04-22T13:19:12.831Z,156.45
2019-04-22T13:21:38.525Z,153.80
2019-04-22T13:24:07.092Z,155.07
2019-04-22T13:26:35.867Z,156.40
2019-04-22T13:29:03.355Z,156.12
2019-04-22T13:31:30.975Z,156.65
2019-04-22T13:34:13.267Z,155.50
2019-04-22T13:36:40.082Z,155.93
2019-04-22T13:39:08.945Z,154.82
2019-04-22T13:41:46.328Z,156.80
2019-04-22T13:44:07.071Z,153.02
2019-04-22T13:46:35.591Z,153.50
2019-04-22T13:49:38.266Z,155.65
2019-04-22T13:52:15.260Z,155.03
2019-04-22T13:56:51.856Z,153.07
2019-04-22T13:59:15.100Z,153.10
2019-04-22T14:02:00.818Z,154.75
2019-04-22T14:04:32.655Z,154.20
2019-04-22T14:07:00.845Z,155.35
2019-04-22T14:09:33.910Z,155.40
2019-04-22T14:12:07.360Z,155.18
2019-04-22T14:14:39.321Z,152.87
2019-04-22T14:17:09.021Z,155.50
2019-04-22T14:19:39.202Z,155.00
2019-04-22T14:22:09.604Z,155.85
2019-04-22T14:24:40.499Z,152.75
2019-04-22T14:27:22.365Z,151.68
2019-04-22T14:29:39.805Z,151.63
2019-04-22T14:34:39.007Z,153.23
2019-04-22T14:37:14.130Z,156.40
2019-04-22T14:39:41.980Z,152.97
2019-04-22T14:42:28.278Z,152.60
2019-04-22T14:44:03.823Z,155.27
2019-04-22T14:47:34.610Z,153.23
2019-04-22T14:50:07.998Z,154.15
2019-04-22T14:52:33.305Z,155.78
2019-04-22T14:54:53.078Z,154.87
2019-04-22T14:57:12.964Z,154.05
2019-04-22T14:59:46.189Z,154.12
2019-04-22T15:02:14.073Z,152.60
2019-04-22T15:04:41.572Z,154.90
2019-04-22T15:07:16.924Z,155.82
2019-04-22T15:09:46.231Z,154.55
2019-04-22T15:12:20.549Z,154.57
2019-04-22T15:14:43.610Z,154.38
2019-04-22T15:17:33.391Z,155.70
2019-04-22T15:20:16.049Z,154.80
2019-04-22T15:22:44.321Z,155.07
2019-04-22T15:25:42.049Z,156.70
2019-04-22T15:28:19.601Z,155.45
2019-04-22T15:30:51.171Z,154.95
2019-04-22T15:33:19.413Z,155.78
2019-04-22T15:35:47.237Z,154.63
2019-04-22T15:38:17.744Z,152.02
2019-04-22T15:40:46.949Z,153.78
2019-04-22T15:43:14.970Z,152.25
2019-04-22T15:45:44.186Z,150.75
2019-04-22T15:48:14.806Z,153.02
2019-04-22T15:50:42.549Z,153.25
2019-04-22T15:53:11.733Z,151.42
2019-04-22T15:55:39.025Z,151.55
2019-04-22T15:58:07.959Z,151.25
2019-04-22T16:00:51.046Z,151.87
2019-04-22T16:03:08.381Z,151.72
2019-04-22T16:05:34.180Z,152.30
2019-04-22T16:08:03.565Z,150.38
2019-04-22T16:10:31.212Z,152.72
2019-04-22T16:13:07.459Z,151.65
2019-04-22T16:15:28.797Z,152.70
2019-04-22T16:17:56.054Z,153.60
2019-04-22T16:20:23.328Z,152.17
2019-04-22T16:23:09.610Z,151.37
2019-04-22T16:26:03.451Z,151.35
2019-04-22T16:28:31.373Z,150.65
2019-04-22T16:30:59.700Z,150.20
2019-04-22T16:33:27.747Z,152.72
2019-04-22T16:35:55.098Z,154.25
2019-04-22T16:38:24.599Z,152.30
2019-04-22T16:40:52.731Z,150.85
2019-04-22T16:43:20.443Z,151.27
2019-04-22T16:45:50.034Z,152.93
2019-04-22T16:48:19.857Z,152.12
2019-04-22T16:50:50.645Z,151.65
2019-04-22T16:53:20.678Z,151.37
2019-04-22T16:55:50.809Z,154.68
2019-04-22T16:58:18.916Z,151.00
2019-04-22T17:00:49.629Z,150.03
2019-04-22T17:03:52.408Z,151.10
2019-04-22T17:06:29.923Z,152.00
2019-04-22T17:08:57.343Z,153.42
2019-04-22T17:11:27.531Z,152.68
2019-04-22T17:13:55.164Z,150.53
2019-04-22T17:16:24.194Z,153.00
2019-04-22T17:18:54.217Z,153.15
2019-04-22T17:21:21.803Z,152.47
2019-04-22T17:23:49.865Z,152.68
2019-04-22T17:26:18.721Z,151.27
2019-04-22T17:28:46.290Z,151.75
2019-04-22T17:31:13.670Z,151.55
2019-04-22T17:33:41.197Z,151.02
2019-04-22T17:36:09.328Z,150.65
2019-04-22T17:38:48.947Z,148.90
2019-04-22T17:41:20.731Z,149.70
2019-04-22T17:43:58.865Z,148.22
2019-04-22T17:46:32.290Z,148.62
2019-04-22T17:49:16.704Z,148.15
2019-04-22T17:52:06.166Z,148.78
2019-04-22T17:54:34.436Z,148.87
2019-04-22T17:57:02.099Z,150.65
2019-04-22T17:59:35.951Z,149.18
2019-04-22T18:01:59.645Z,148.62
2019-04-22T18:04:12.742Z,150.15
2019-04-22T18:07:02.912Z,150.65
2019-04-22T18:09:53.714Z,149.62
2019-04-22T18:12:04.870Z,149.95
2019-04-22T18:14:41.696Z,150.03
2019-04-22T18:17:05.796Z,147.53
2019-04-22T18:19:29.471Z,147.55
2019-04-22T18:21:51.625Z,147.68
2019-04-22T18:24:19.981Z,148.45
2019-04-22T18:27:18.953Z,150.65
2019-04-22T18:29:28.093Z,148.45
2019-04-22T18:31:51.175Z,148.43
2019-04-22T18:34:25.537Z,148.60
2019-04-22T18:37:07.712Z,147.57
2019-04-22T18:39:42.520Z,148.00
2019-04-22T18:42:05.920Z,148.02
2019-04-22T18:44:39.849Z,147.43
2019-04-22T18:47:07.351Z,146.57
2019-04-22T18:49:37.352Z,146.80
2019-04-22T18:52:38.000Z,148.85
2019-04-22T18:55:17.933Z,146.10
2019-04-22T18:58:16.615Z,147.10
2019-04-22T19:00:36.230Z,147.40
2019-04-22T19:03:13.512Z,147.15
2019-04-22T19:06:02.601Z,145.97
2019-04-22T19:08:28.826Z,147.95
2019-04-22T19:11:02.602Z,147.68
2019-04-22T19:16:09.752Z,147.72
2019-04-22T19:18:37.921Z,147.20
2019-04-22T19:21:02.801Z,147.50
2019-04-22T19:23:28.486Z,147.43
2019-04-22T19:25:59.096Z,148.85
2019-04-22T19:28:42.569Z,147.02
2019-04-22T19:31:13.515Z,146.77
2019-04-22T19:33:40.679Z,148.17
2019-04-22T19:36:10.756Z,150.47
2019-04-22T19:38:30.036Z,146.43
2019-04-22T19:41:19.761Z,147.57
2019-04-22T19:43:46.497Z,146.05
2019-04-22T19:46:13.022Z,146.70
2019-04-22T19:48:45.498Z,146.13
2019-04-22T19:51:24.249Z,148.32
2019-04-22T19:53:47.399Z,148.43
2019-04-22T19:56:11.552Z,146.07
2019-04-22T19:58:42.645Z,149.05
2019-04-22T20:01:44.108Z,147.95
2019-04-22T20:04:32.641Z,146.53
2019-04-22T20:07:05.144Z,145.43
2019-04-22T20:09:35.447Z,146.35
2019-04-22T20:12:04.534Z,148.55
2019-04-22T20:14:34.991Z,146.25
2019-04-22T20:17:02.445Z,147.70
2019-04-22T20:19:41.470Z,147.55
2019-04-22T20:22:03.000Z,145.90
2019-04-22T20:24:23.840Z,145.77
2019-04-22T20:27:12.378Z,145.17
2019-04-22T20:29:37.670Z,146.20
2019-04-22T20:32:05.700Z,146.87
2019-04-22T20:34:37.973Z,147.32
2019-04-22T20:37:10.449Z,145.25
2019-04-22T20:39:40.951Z,148.25
2019-04-22T20:42:21.305Z,145.57
2019-04-22T20:44:33.517Z,148.57
2019-04-22T20:46:55.758Z,146.22
2019-04-22T20:49:31.063Z,146.32
2019-04-22T20:52:21.634Z,146.28
2019-04-22T20:54:32.644Z,145.38
2019-04-22T20:56:57.721Z,144.37
2019-04-22T20:59:28.861Z,145.12
2019-04-22T21:01:57.974Z,144.45
2019-04-22T21:04:33.535Z,145.35
2019-04-22T21:07:05.100Z,144.30
2019-04-22T21:09:38.294Z,144.85
2019-04-22T21:12:05.133Z,146.98
2019-04-22T21:14:32.458Z,143.87
2019-04-22T21:17:08.041Z,144.35
2019-04-22T21:19:49.739Z,144.60
2019-04-22T21:22:07.952Z,143.93
2019-04-22T21:24:34.995Z,144.80
2019-04-22T21:27:10.319Z,143.57
2019-04-22T21:29:32.149Z,144.28
2019-04-22T21:32:01.094Z,145.47
2019-04-22T21:34:41.391Z,143.95
2019-04-22T21:37:07.635Z,143.87
2019-04-22T21:39:29.024Z,144.25
2019-04-22T21:42:03.380Z,144.55
2019-04-22T21:44:26.149Z,146.50
2019-04-22T21:47:04.426Z,144.02
2019-04-22T21:49:29.620Z,143.68
2019-04-22T21:52:13.490Z,144.70
2019-04-22T21:54:28.273Z,143.57
2019-04-22T21:59:34.675Z,143.43
2019-04-22T22:02:12.375Z,142.00
2019-04-22T22:04:36.363Z,142.45
2019-04-22T22:06:58.932Z,143.17
2019-04-22T22:09:39.941Z,142.50
2019-04-22T22:12:02.441Z,143.60
2019-04-22T22:14:34.844Z,143.97
2019-04-22T22:16:56.110Z,142.32
2019-04-22T22:19:35.946Z,143.45
2019-04-22T22:22:07.849Z,142.18
2019-04-22T22:24:41.586Z,142.75
2019-04-22T22:27:01.441Z,143.75
2019-04-22T22:29:48.054Z,142.98
2019-04-22T22:32:07.932Z,142.45
2019-04-22T22:34:28.061Z,142.30
2019-04-22T22:36:54.404Z,142.47
2019-04-22T22:39:23.692Z,142.32
2019-04-22T22:41:39.731Z,143.75
2019-04-22T22:44:16.398Z,142.30
2019-04-22T22:46:51.494Z,143.35
2019-04-22T22:49:29.902Z,144.20
2019-04-22T22:52:09.780Z,145.85
2019-04-22T22:54:33.110Z,143.07
2019-04-22T22:57:01.974Z,143.80
2019-04-22T22:59:29.937Z,143.90
2019-04-22T23:01:52.626Z,143.13
2019-04-22T23:04:29.488Z,142.30
2019-04-22T23:06:58.248Z,142.30
2019-04-22T23:09:19.559Z,140.95
2019-04-22T23:12:03.307Z,141.35
2019-04-22T23:14:20.856Z,140.92
2019-04-22T23:16:39.785Z,141.28
2019-04-22T23:19:04.392Z,141.15
2019-04-22T23:21:38.816Z,141.28
2019-04-22T23:24:23.411Z,140.60
2019-04-22T23:27:03.221Z,141.60
2019-04-22T23:29:43.050Z,141.53
2019-04-22T23:32:18.540Z,143.17
2019-04-22T23:34:58.737Z,141.55
2019-04-22T23:37:29.016Z,143.28
2019-04-22T23:40:11.780Z,141.53
2019-04-22T23:42:41.768Z,141.70
2019-04-22T23:45:02.030Z,140.68
2019-04-22T23:47:30.060Z,141.05
2019-04-22T23:50:14.060Z,142.28
2019-04-22T23:52:49.003Z,140.65
2019-04-22T23:55:17.769Z,140.92
2019-04-22T23:57:46.974Z,140.05
